createdAt,value
2023-04-15T00:02:14.737Z,92.70
2023-04-15T00:06:16.735Z,92.50
2023-04-15T00:10:19.095Z,93.10
2023-04-15T00:14:22.040Z,93.00
2023-04-15T00:18:24.987Z,92.90
2023-04-15T00:22:30.078Z,92.70
2023-04-15T00:26:32.138Z,92.90
2023-04-15T00:30:34.775Z,92.80
2023-04-15T00:34:37.267Z,92.80
2023-04-15T00:38:39.436Z,92.90
2023-04-15T00:42:41.413Z,92.60
2023-04-15T00:46:45.289Z,92.70
2023-04-15T00:50:47.310Z,92.80
2023-04-15T00:54:51.256Z,92.60
2023-04-15T00:58:53.521Z,92.80
2023-04-15T01:02:55.989Z,92.70
2023-04-15T01:06:58.229Z,92.60
2023-04-15T01:11:03.563Z,92.60
2023-04-15T01:15:06.558Z,92.60
2023-04-15T01:19:12.175Z,92.60
2023-04-15T01:23:14.597Z,92.60
2023-04-15T01:27:16.438Z,92.50
2023-04-15T01:31:18.505Z,92.40
2023-04-15T01:35:21.479Z,92.60
2023-04-15T01:39:23.433Z,92.80
2023-04-15T01:43:26.550Z,92.80
2023-04-15T01:47:28.544Z,92.70
2023-04-15T01:51:30.473Z,92.40
2023-04-15T01:55:32.571Z,92.40
2023-04-15T01:59:34.458Z,92.50
2023-04-15T02:03:37.291Z,92.80
2023-04-15T02:07:39.465Z,93.00
2023-04-15T02:11:41.463Z,93.00
2023-04-15T02:15:50.967Z,94.00
2023-04-15T02:19:56.756Z,94.10
2023-04-15T02:23:59.871Z,94.10
2023-04-15T02:28:01.962Z,95.30
2023-04-15T02:32:04.409Z,95.90
2023-04-15T02:36:07.913Z,95.90
2023-04-15T02:40:13.642Z,96.50
2023-04-15T02:44:15.921Z,95.90
2023-04-15T02:48:20.242Z,95.70
2023-04-15T02:52:22.475Z,96.00
2023-04-15T02:56:24.397Z,96.50
2023-04-15T03:00:27.431Z,95.60
2023-04-15T03:04:30.823Z,94.90
2023-04-15T03:08:32.801Z,94.80
2023-04-15T03:12:35.935Z,94.90
2023-04-15T03:16:38.288Z,95.50
2023-04-15T03:20:40.716Z,94.80
2023-04-15T03:24:42.734Z,95.20
2023-04-15T03:28:46.001Z,95.60
2023-04-15T03:32:50.675Z,95.90
2023-04-15T03:36:52.551Z,95.80
2023-04-15T03:40:54.372Z,95.50
2023-04-15T03:44:56.239Z,95.10
2023-04-15T03:48:58.962Z,95.20
2023-04-15T03:53:01.312Z,95.90
2023-04-15T03:57:03.423Z,96.00
2023-04-15T04:01:05.241Z,96.70
2023-04-15T04:05:07.284Z,96.20
2023-04-15T04:09:09.210Z,95.90
2023-04-15T04:13:11.193Z,95.10
2023-04-15T04:17:13.289Z,94.40
2023-04-15T04:21:15.631Z,94.20
2023-04-15T04:25:17.755Z,93.90
2023-04-15T04:29:19.747Z,93.70
2023-04-15T04:33:21.681Z,93.70
2023-04-15T04:37:24.619Z,94.60
2023-04-15T04:41:26.499Z,95.00
2023-04-15T04:45:28.757Z,96.10
2023-04-15T04:49:30.984Z,96.00
2023-04-15T04:53:33.033Z,95.30
2023-04-15T04:57:39.502Z,96.10
2023-04-15T05:01:42.011Z,96.20
2023-04-15T05:05:44.009Z,96.50
2023-04-15T05:09:46.377Z,96.20
2023-04-15T05:13:48.158Z,96.20
2023-04-15T05:17:50.142Z,95.40
2023-04-15T05:21:52.172Z,95.70
2023-04-15T05:25:54.295Z,95.20
2023-04-15T05:29:56.741Z,94.40
2023-04-15T05:33:58.556Z,94.20
2023-04-15T05:38:00.737Z,93.90
2023-04-15T05:42:02.549Z,93.60
2023-04-15T05:46:04.655Z,93.40
2023-04-15T05:50:07.419Z,93.30
2023-04-15T05:54:09.559Z,93.20
2023-04-15T05:58:12.700Z,93.40
2023-04-15T06:02:15.138Z,93.40
2023-04-15T06:06:17.348Z,93.80
2023-04-15T06:10:19.428Z,93.60
2023-04-15T06:14:21.311Z,93.90
2023-04-15T06:18:23.222Z,94.00
2023-04-15T06:22:25.680Z,94.20
2023-04-15T06:26:28.184Z,94.20
2023-04-15T06:30:30.519Z,94.10
2023-04-15T06:34:32.418Z,94.00
2023-04-15T06:38:34.472Z,94.40
2023-04-15T06:42:38.182Z,94.30
2023-04-15T06:46:40.075Z,94.10
2023-04-15T06:50:42.543Z,94.50
2023-04-15T06:54:44.710Z,94.50
2023-04-15T06:58:47.215Z,94.40
2023-04-15T07:02:49.377Z,94.40
2023-04-15T07:06:51.492Z,94.80
2023-04-15T07:10:54.202Z,94.60
2023-04-15T07:14:56.252Z,94.40
2023-04-15T07:18:58.352Z,94.10
2023-04-15T07:23:00.276Z,93.90
2023-04-15T07:27:02.506Z,93.50
2023-04-15T07:31:04.665Z,93.70
2023-04-15T07:35:07.853Z,93.60
2023-04-15T07:39:10.255Z,93.50
2023-04-15T07:43:13.505Z,92.80
2023-04-15T07:47:15.672Z,92.60
2023-04-15T07:51:17.861Z,90.90
2023-04-15T07:55:22.990Z,90.80
2023-04-15T07:59:25.236Z,90.40
2023-04-15T08:03:27.658Z,90.80
2023-04-15T08:07:30.157Z,90.40
2023-04-15T08:11:32.309Z,89.60
2023-04-15T08:15:34.223Z,90.30
2023-04-15T08:19:36.152Z,90.90
2023-04-15T08:23:39.316Z,90.10
2023-04-15T08:27:41.429Z,90.60
2023-04-15T08:31:43.835Z,91.20
2023-04-15T08:35:46.623Z,91.70
2023-04-15T08:39:48.664Z,91.00
2023-04-15T08:44:04.137Z,89.90
2023-04-15T08:48:07.727Z,89.80
2023-04-15T08:52:09.871Z,88.20
2023-04-15T08:56:14.370Z,89.40
2023-04-15T09:00:17.219Z,88.70
2023-04-15T09:04:19.425Z,89.30
2023-04-15T09:08:22.259Z,87.60
2023-04-15T09:12:24.352Z,90.00
2023-04-15T09:16:26.341Z,89.20
2023-04-15T09:20:28.755Z,87.10
2023-04-15T09:24:39.496Z,88.80
2023-04-15T09:28:42.455Z,89.00
2023-04-15T09:32:51.986Z,87.40
2023-04-15T09:36:56.327Z,88.40
2023-04-15T09:40:58.856Z,89.20
2023-04-15T09:45:12.444Z,89.70
2023-04-15T09:49:14.540Z,90.10
2023-04-15T09:53:21.904Z,89.10
2023-04-15T09:57:24.584Z,87.30
2023-04-15T10:01:27.059Z,89.50
2023-04-15T10:05:31.328Z,89.30
2023-04-15T10:09:35.450Z,88.20
2023-04-15T10:13:38.866Z,86.40
2023-04-15T10:17:44.884Z,88.00
2023-04-15T10:21:47.587Z,87.90
2023-04-15T10:25:51.736Z,87.40
2023-04-15T10:29:54.882Z,87.00
2023-04-15T10:33:57.824Z,88.70
2023-04-15T10:38:00.158Z,88.80
2023-04-15T10:42:13.556Z,86.70
2023-04-15T10:46:40.166Z,86.50
2023-04-15T10:50:56.787Z,85.90
2023-04-15T10:55:07.688Z,88.80
2023-04-15T10:59:10.326Z,87.20
2023-04-15T11:03:13.290Z,86.90
2023-04-15T11:07:15.426Z,84.70
2023-04-15T11:11:17.510Z,88.00
2023-04-15T11:15:34.452Z,86.30
2023-04-15T11:19:38.118Z,87.30
2023-04-15T11:23:47.028Z,87.90
2023-04-15T11:27:50.092Z,86.60
2023-04-15T11:31:52.210Z,87.80
2023-04-15T11:35:55.191Z,85.30
2023-04-15T11:39:57.288Z,85.30
2023-04-15T11:43:59.146Z,85.10
2023-04-15T11:48:12.279Z,81.10
2023-04-15T11:52:14.405Z,80.90
2023-04-15T11:56:19.084Z,80.50
2023-04-15T12:00:21.199Z,79.70
2023-04-15T12:04:25.644Z,79.80
2023-04-15T12:09:06.712Z,80.50
2023-04-15T12:13:10.160Z,80.10
2023-04-15T12:17:13.294Z,78.50
2023-04-15T12:21:15.529Z,75.00
2023-04-15T12:25:17.673Z,75.70
2023-04-15T12:29:21.047Z,77.50
2023-04-15T12:33:22.981Z,73.90
2023-04-15T12:37:26.036Z,74.00
2023-04-15T12:41:28.113Z,75.40
2023-04-15T12:45:30.209Z,76.30
2023-04-15T12:49:33.555Z,75.80
2023-04-15T12:53:35.687Z,74.90
2023-04-15T12:57:37.741Z,74.70
2023-04-15T13:01:40.140Z,74.00
2023-04-15T13:05:42.666Z,73.30
2023-04-15T13:09:44.882Z,74.90
2023-04-15T13:13:46.922Z,73.60
2023-04-15T13:17:49.589Z,75.20
2023-04-15T13:21:51.855Z,77.30
2023-04-15T13:25:53.864Z,80.30
2023-04-15T13:29:55.733Z,80.80
2023-04-15T13:33:57.815Z,81.50
2023-04-15T13:37:59.763Z,78.00
2023-04-15T13:42:02.747Z,80.90
2023-04-15T13:46:04.732Z,81.10
2023-04-15T13:50:07.462Z,79.00
2023-04-15T13:54:09.591Z,79.20
2023-04-15T13:58:11.667Z,79.80
2023-04-15T14:02:13.713Z,83.60
2023-04-15T14:06:15.673Z,83.20
2023-04-15T14:10:17.688Z,85.10
2023-04-15T14:14:19.733Z,85.70
2023-04-15T14:18:21.721Z,85.40
2023-04-15T14:22:23.747Z,84.10
2023-04-15T14:26:26.118Z,83.90
2023-04-15T14:30:27.948Z,84.20
2023-04-15T14:34:29.790Z,81.20
2023-04-15T14:38:33.667Z,80.20
2023-04-15T14:42:37.011Z,80.90
2023-04-15T14:46:40.699Z,79.50
2023-04-15T14:50:43.003Z,81.10
2023-04-15T14:54:44.955Z,77.00
2023-04-15T14:58:47.034Z,78.60
2023-04-15T15:02:49.192Z,77.30
2023-04-15T15:06:51.275Z,78.70
2023-04-15T15:10:53.264Z,77.70
2023-04-15T15:14:56.095Z,76.10
2023-04-15T15:18:58.068Z,76.90
2023-04-15T15:23:01.140Z,78.60
2023-04-15T15:27:03.232Z,77.70
2023-04-15T15:31:06.151Z,78.70
2023-04-15T15:35:08.955Z,80.50
2023-04-15T15:39:10.951Z,81.10
2023-04-15T15:43:12.934Z,83.50
2023-04-15T15:47:18.390Z,85.70
2023-04-15T15:51:20.970Z,86.70
2023-04-15T15:55:25.182Z,87.00
2023-04-15T15:59:27.183Z,87.50
2023-04-15T16:03:29.500Z,88.50
2023-04-15T16:07:31.460Z,88.70
2023-04-15T16:11:33.532Z,91.60
2023-04-15T16:15:35.523Z,92.30
2023-04-15T16:19:37.421Z,93.70
2023-04-15T16:23:39.315Z,95.50
2023-04-15T16:27:57.284Z,95.50
2023-04-15T16:32:03.110Z,98.50
2023-04-15T16:36:05.713Z,99.00
2023-04-15T16:40:09.484Z,99.90
2023-04-15T16:44:11.754Z,99.90
2023-04-15T16:48:13.691Z,99.90
2023-04-15T16:52:15.793Z,99.90
2023-04-15T16:56:17.960Z,99.90
2023-04-15T17:00:20.394Z,98.90
2023-04-15T17:04:22.850Z,98.50
2023-04-15T17:08:25.191Z,98.00
2023-04-15T17:12:27.089Z,99.90
2023-04-15T17:16:29.118Z,99.90
2023-04-15T17:20:31.236Z,99.00
2023-04-15T17:24:33.446Z,98.60
2023-04-15T17:28:36.145Z,98.10
2023-04-15T17:32:40.109Z,99.00
2023-04-15T17:36:42.458Z,99.90
2023-04-15T17:40:44.535Z,99.90
2023-04-15T17:44:46.564Z,99.60
2023-04-15T17:48:49.444Z,99.90
2023-04-15T17:52:51.525Z,99.20
2023-04-15T17:56:53.975Z,99.20
2023-04-15T18:00:56.034Z,98.40
2023-04-15T18:04:58.068Z,98.30
2023-04-15T18:08:59.972Z,98.70
2023-04-15T18:13:03.456Z,98.30
2023-04-15T18:17:05.496Z,98.40
2023-04-15T18:21:07.635Z,98.20
2023-04-15T18:25:09.871Z,98.80
2023-04-15T18:29:12.041Z,98.50
2023-04-15T18:33:13.900Z,98.00
2023-04-15T18:37:15.829Z,97.70
2023-04-15T18:41:17.746Z,98.40
2023-04-15T18:45:20.126Z,98.40
2023-04-15T18:49:22.047Z,97.90
2023-04-15T18:53:24.180Z,97.90
2023-04-15T18:57:32.364Z,97.80
2023-04-15T19:01:37.306Z,98.40
2023-04-15T19:05:40.042Z,98.00
2023-04-15T19:09:42.393Z,97.70
2023-04-15T19:13:44.257Z,97.80
2023-04-15T19:17:46.355Z,98.20
2023-04-15T19:21:50.188Z,98.00
2023-04-15T19:25:52.536Z,98.10
2023-04-15T19:29:54.612Z,97.90
2023-04-15T19:33:56.832Z,98.10
2023-04-15T19:37:58.788Z,98.00
2023-04-15T19:42:02.648Z,99.90
2023-04-15T19:46:04.545Z,99.90
2023-04-15T19:50:07.418Z,99.90
2023-04-15T19:54:09.525Z,99.00
2023-04-15T19:58:11.800Z,99.10
2023-04-15T20:02:13.888Z,98.80
2023-04-15T20:06:16.304Z,98.10
2023-04-15T20:10:22.437Z,98.50
2023-04-15T20:14:25.155Z,98.30
2023-04-15T20:18:27.371Z,98.20
2023-04-15T20:22:29.249Z,98.30
2023-04-15T20:26:31.337Z,98.40
2023-04-15T20:30:33.462Z,98.50
2023-04-15T20:34:35.422Z,98.90
2023-04-15T20:38:37.294Z,99.20
2023-04-15T20:42:39.253Z,98.50
2023-04-15T20:46:41.056Z,99.90
2023-04-15T20:50:43.048Z,99.60
2023-04-15T20:54:45.030Z,98.80
2023-04-15T20:58:47.047Z,98.40
2023-04-15T21:02:49.188Z,98.60
2023-04-15T21:06:52.296Z,98.70
2023-04-15T21:10:54.510Z,98.60
2023-04-15T21:14:56.451Z,98.40
2023-04-15T21:18:58.428Z,97.90
2023-04-15T21:23:00.691Z,97.30
2023-04-15T21:27:02.797Z,97.40
2023-04-15T21:31:04.787Z,97.50
2023-04-15T21:35:07.063Z,97.80
2023-04-15T21:39:08.957Z,97.70
2023-04-15T21:43:10.888Z,97.30
2023-04-15T21:47:12.853Z,97.30
2023-04-15T21:51:14.857Z,97.30
2023-04-15T21:55:16.958Z,97.40
2023-04-15T21:59:18.889Z,97.70
2023-04-15T22:03:21.028Z,97.50
2023-04-15T22:07:23.277Z,97.70
2023-04-15T22:11:29.550Z,97.70
2023-04-15T22:15:31.604Z,97.60
2023-04-15T22:19:33.373Z,97.60
2023-04-15T22:23:35.394Z,97.70
2023-04-15T22:27:37.324Z,97.90
2023-04-15T22:31:39.471Z,98.00
2023-04-15T22:35:41.371Z,97.90
2023-04-15T22:39:43.374Z,97.90
2023-04-15T22:43:46.341Z,98.00
2023-04-15T22:47:48.251Z,97.90
2023-04-15T22:51:50.301Z,97.80
2023-04-15T22:55:53.876Z,98.00
2023-04-15T22:59:56.065Z,98.20
2023-04-15T23:04:08.281Z,98.20
2023-04-15T23:08:11.853Z,98.30
2023-04-15T23:12:14.034Z,98.30
2023-04-15T23:16:15.989Z,98.20
2023-04-15T23:20:17.944Z,98.40
2023-04-15T23:24:20.776Z,98.30
2023-04-15T23:28:22.855Z,98.30
2023-04-15T23:32:24.697Z,98.40
2023-04-15T23:36:27.259Z,99.00
2023-04-15T23:40:29.074Z,98.80
2023-04-15T23:44:30.909Z,98.70
2023-04-15T23:48:33.220Z,98.70
2023-04-15T23:52:36.377Z,98.60
2023-04-15T23:56:38.406Z,98.80
